Marvin, Missouri
Current Conditions -  °F | °C
As of 3:53 AM on Tuesday 21 Oct 2014 (Local Time) from KDMO Reporting Station
Clear Clear  
Wind Chill: 47°   Ceiling: Unl
Heat Index: 49°   Visibility: 10mi
Dew Point: 43°   Wind: 5mph
Humidity: 80%   Direction: 220°SW
Pressure: 30.07"   Gusts: NA
Location:  38.4499°N, 92.8168°W
Report Text: KDMO 210853Z AUTO 22004KT 10SM CLR 09/06 A3007 RMK AO2 SLP181 T00940061 58002
Loading
Personal Weather Stations






























Interactive Weather Map
Tropical Storm Tracking
New forecast layout! Learn more

10-Day Weather Forecast

Advertisements
Track Severe Weather on mobile